Time;durP1;ratioP1;P1;durP2;ratioP2;P2;SDS_P1;SDS_P2;PMS_P1;PMS_P2;Temp;Humidity;BMP_temperature;BMP_pressure;BME280_temperature;BME280_humidity;BME280_pressure;Samples;Min_cycle;Max_cycle;Signal;HPM_P1;HPM_P2
2022/06/03 00:02:09;;;;;;;4.28;1.85;;;;;;;17.44;61.52;100166.25;4463751;32;35062;-75
2022/06/03 00:04:59;;;;;;;2.37;1.70;;;;;;;18.46;57.24;100160.78;4467802;32;34185;-75
2022/06/03 00:08:14;;;;;;;2.72;1.60;;;;;;;19.20;54.69;100157.69;4465328;32;34532;-75
2022/06/03 00:11:19;;;;;;;3.78;1.50;;;;;;;19.42;52.32;100151.53;4464480;31;35499;-75
2022/06/03 00:14:24;;;;;;;4.93;1.70;;;;;;;19.56;52.70;100159.44;4477874;31;35059;-76
2022/06/03 00:17:10;;;;;;;3.10;1.55;;;;;;;19.16;54.25;100160.38;4479637;32;34833;-76
2022/06/03 00:20:18;;;;;;;2.40;1.80;;;;;;;19.24;53.96;100173.31;4479006;31;35103;-76
2022/06/03 00:23:39;;;;;;;3.00;1.60;;;;;;;19.48;53.35;100182.66;4478729;31;35256;-76
2022/06/03 00:27:05;;;;;;;2.35;1.55;;;;;;;19.29;53.89;100186.91;4471022;32;34201;-76
2022/06/03 00:29:54;;;;;;;4.50;1.90;;;;;;;18.93;54.92;100206.56;4461516;31;35709;-76
2022/06/03 00:32:58;;;;;;;2.53;1.42;;;;;;;19.06;54.18;100219.22;4478735;31;36003;-76
2022/06/03 00:36:16;;;;;;;2.87;1.60;;;;;;;19.32;52.41;100197.34;4468816;32;34602;-76
2022/06/03 00:39:48;;;;;;;2.22;1.70;;;;;;;19.40;51.80;100200.28;4458908;31;34972;-76
2022/06/03 00:42:53;;;;;;;2.60;1.80;;;;;;;19.44;51.70;100201.19;4441301;31;35487;-76
2022/06/03 00:46:09;;;;;;;3.70;1.50;;;;;;;19.42;52.69;100200.75;4478885;31;35010;-76
2022/06/03 00:49:22;;;;;;;3.65;1.70;;;;;;;19.27;53.08;100200.38;4430022;31;34728;-76
2022/06/03 00:52:28;;;;;;;3.55;1.40;;;;;;;19.03;54.16;100206.84;4466655;32;34203;-76
2022/06/03 00:55:52;;;;;;;2.45;1.67;;;;;;;17.75;58.07;100217.53;4479812;31;34867;-76
2022/06/03 00:59:25;;;;;;;3.65;1.80;;;;;;;18.40;56.81;100209.34;4477376;31;35025;-76
2022/06/03 01:02:19;;;;;;;4.78;1.90;;;;;;;17.91;58.56;100212.97;4477910;31;34494;-76
2022/06/03 01:05:14;;;;;;;3.85;1.87;;;;;;;18.23;57.96;100217.94;4478589;31;34118;-75
2022/06/03 01:08:13;;;;;;;4.55;1.95;;;;;;;18.63;55.72;100223.50;4478795;31;35718;-76
2022/06/03 01:11:27;;;;;;;2.05;1.58;;;;;;;18.74;55.36;100230.22;4475567;31;34915;-76
2022/06/03 01:14:36;;;;;;;5.45;1.40;;;;;;;18.29;57.45;100222.88;4464731;32;34564;-76
2022/06/03 01:17:34;;;;;;;4.93;1.62;;;;;;;18.32;55.51;100224.16;4466107;32;33727;-76
2022/06/03 01:20:44;;;;;;;3.67;1.70;;;;;;;18.69;52.61;100227.66;4466806;31;34312;-76
2022/06/03 01:23:54;;;;;;;3.87;1.67;;;;;;;17.98;54.76;100218.72;4476220;31;35988;-76
2022/06/03 01:27:31;;;;;;;2.55;1.70;;;;;;;17.82;55.70;100226.13;4466440;32;34613;-76
2022/06/03 01:33:20;;;;;;;3.28;1.83;;;;;;;18.18;54.26;100230.06;4465735;31;34168;-76
2022/06/03 01:36:21;;;;;;;3.15;1.80;;;;;;;18.37;54.60;100232.25;4478728;31;35008;-76
2022/06/03 01:39:20;;;;;;;;;;;;;;;18.36;55.42;100233.41;4465599;31;35277;-76
2022/06/03 01:42:15;;;;;;;2.95;2.00;;;;;;;18.42;55.96;100232.81;4464984;32;34148;-76
2022/06/03 01:45:18;;;;;;;2.65;1.85;;;;;;;18.45;56.14;100241.59;4481109;31;34503;-76
2022/06/03 01:48:23;;;;;;;3.47;2.30;;;;;;;18.51;56.62;100248.53;4477116;31;35699;-76
2022/06/03 01:51:37;;;;;;;2.45;1.65;;;;;;;18.26;57.18;100251.31;4463644;31;35702;-76
2022/06/03 01:55:18;;;;;;;2.90;1.90;;;;;;;18.45;56.92;100258.25;4479527;31;35263;-76
2022/06/03 01:58:13;;;;;;;3.37;2.00;;;;;;;18.62;55.99;100255.19;4415473;32;34711;-76
2022/06/03 02:01:02;;;;;;;1.95;1.65;;;;;;;18.29;56.75;100247.84;4467537;31;34976;-76
2022/06/03 02:04:04;;;;;;;3.47;1.60;;;;;;;18.45;56.58;100253.50;4478990;32;33589;-75
2022/06/03 02:07:29;;;;;;;3.65;2.00;;;;;;;18.63;55.83;100249.28;4478848;31;34226;-76
2022/06/03 02:10:32;;;;;;;3.55;1.90;;;;;;;18.69;55.94;100252.62;4478525;31;35575;-76
2022/06/03 02:13:21;;;;;;;4.12;1.85;;;;;;;18.32;57.00;100252.69;4478611;31;34984;-76
2022/06/03 02:16:26;;;;;;;4.12;2.00;;;;;;;18.41;57.29;100250.63;4477691;31;35476;-76
2022/06/03 02:19:36;;;;;;;4.37;1.73;;;;;;;18.02;59.40;100243.00;4477578;31;35115;-76
2022/06/03 02:22:34;;;;;;;4.80;1.98;;;;;;;18.27;59.05;100239.09;4478375;31;34306;-76
2022/06/03 02:25:21;;;;;;;3.90;2.00;;;;;;;18.47;57.99;100233.72;4467380;31;34681;-76
2022/06/03 02:28:28;;;;;;;5.00;2.00;;;;;;;18.32;58.43;100230.50;4480541;32;34559;-76
2022/06/03 02:31:44;;;;;;;4.47;2.00;;;;;;;18.41;57.73;100238.69;4467093;31;34149;-76
2022/06/03 02:35:19;;;;;;;3.72;2.10;;;;;;;18.50;57.64;100250.50;4467329;32;34251;-76
2022/06/03 02:38:27;;;;;;;5.37;2.60;;;;;;;17.20;62.36;100243.75;4390628;32;34951;-76
2022/06/03 02:41:45;;;;;;;7.62;2.58;;;;;;;17.23;63.52;100243.87;4476767;31;34606;-76
2022/06/03 02:44:46;;;;;;;6.40;2.20;;;;;;;17.40;62.55;100240.13;4480358;32;34121;-76
2022/06/03 02:48:10;;;;;;;3.42;2.10;;;;;;;17.05;62.03;100254.31;4470157;31;34278;-76
2022/06/03 02:51:11;;;;;;;2.53;1.73;;;;;;;17.20;61.73;100246.53;4465259;31;34843;-76
2022/06/03 02:54:19;;;;;;;3.45;1.80;;;;;;;17.59;60.34;100241.53;4465653;31;36313;-76
2022/06/03 02:57:12;;;;;;;5.32;1.80;;;;;;;17.41;59.60;100238.94;4476602;31;35423;-76
2022/06/03 03:00:16;;;;;;;1.95;1.40;;;;;;;17.57;59.44;100241.88;4478164;31;34567;-76
2022/06/03 03:03:22;;;;;;;4.47;1.70;;;;;;;17.96;57.49;100236.91;4479555;31;34595;-76
2022/06/03 03:06:41;;;;;;;2.45;1.70;;;;;;;17.90;57.62;100238.25;4479435;31;34182;-76
2022/06/03 03:09:44;;;;;;;5.53;2.28;;;;;;;17.71;58.84;100245.16;4477421;31;33806;-76
2022/06/03 03:13:10;;;;;;;3.03;1.98;;;;;;;17.67;60.07;100246.16;4477725;31;34697;-77
2022/06/03 03:16:16;;;;;;;2.62;1.85;;;;;;;17.63;60.95;100256.34;4426066;31;34523;-76
2022/06/03 03:19:21;;;;;;;3.42;2.10;;;;;;;17.65;60.32;100256.81;4465705;31;34301;-76
2022/06/03 03:22:30;;;;;;;5.60;2.10;;;;;;;17.55;60.67;100255.25;4477760;31;33712;-76
2022/06/03 03:25:29;;;;;;;3.50;1.92;;;;;;;17.25;60.75;100258.19;4476940;31;34694;-76
2022/06/03 03:28:22;;;;;;;2.83;1.80;;;;;;;16.89;62.06;100260.81;4462797;31;35994;-76
2022/06/03 03:31:14;;;;;;;4.07;2.10;;;;;;;17.19;61.22;100267.03;4478712;31;35081;-76
2022/06/03 03:34:00;;;;;;;2.85;1.80;;;;;;;17.21;61.25;100268.31;4466490;32;34280;-76
2022/06/03 03:37:03;;;;;;;3.05;1.95;;;;;;;17.44;59.75;100271.50;4478188;31;35228;-76
2022/06/03 03:40:26;;;;;;;4.62;2.10;;;;;;;17.42;60.41;100273.03;4478003;31;36030;-77
2022/06/03 03:43:42;;;;;;;3.65;2.37;;;;;;;17.54;60.56;100273.84;4466798;32;34299;-76
2022/06/03 03:46:53;;;;;;;4.78;2.33;;;;;;;17.61;60.63;100275.25;4480524;31;35287;-77
2022/06/03 03:50:04;;;;;;;3.10;2.00;;;;;;;17.55;60.96;100274.66;4478774;31;34609;-76
2022/06/03 03:53:03;;;;;;;3.28;2.00;;;;;;;17.85;59.18;100280.09;4468628;32;35064;-76
2022/06/03 03:56:29;;;;;;;4.82;2.20;;;;;;;17.34;60.00;100277.50;4468015;32;35727;-76
2022/06/03 03:59:47;;;;;;;4.03;2.10;;;;;;;17.67;60.07;100279.41;4466017;32;35261;-77
2022/06/03 04:02:39;;;;;;;2.58;1.92;;;;;;;17.75;59.63;100271.00;4478565;31;34169;-76
2022/06/03 04:05:56;;;;;;;3.00;2.00;;;;;;;16.98;63.15;100273.41;4477144;31;34575;-76
2022/06/03 04:09:34;;;;;;;4.40;2.17;;;;;;;17.51;61.89;100277.31;4478545;31;34065;-76
2022/06/03 04:12:52;;;;;;;6.47;2.62;;;;;;;17.78;61.44;100280.63;4456658;31;35049;-76
2022/06/03 04:15:49;;;;;;;4.25;2.08;;;;;;;18.04;60.82;100279.50;4468510;32;35284;-78
2022/06/03 04:19:00;;;;;;;4.78;2.10;;;;;;;17.84;60.84;100284.78;4480708;31;35999;-79
2022/06/03 04:22:26;;;;;;;2.72;1.77;;;;;;;17.75;61.10;100286.81;4468833;31;34478;-79
2022/06/03 04:25:30;;;;;;;4.10;2.15;;;;;;;17.78;61.20;100294.50;4481406;32;34396;-79
2022/06/03 04:28:47;;;;;;;4.45;2.08;;;;;;;17.63;61.47;100293.16;4480204;31;35655;-79
2022/06/03 04:35:30;;;;;;;5.40;2.30;;;;;;;18.52;59.70;100294.53;4480746;32;34687;-79
2022/06/03 04:38:39;;;;;;;4.70;2.30;;;;;;;18.54;58.79;100295.00;4480799;31;35075;-79
2022/06/03 04:41:40;;;;;;;4.95;2.25;;;;;;;18.52;58.08;100302.84;4481803;32;34693;-79
2022/06/03 04:44:59;;;;;;;4.18;2.30;;;;;;;18.91;57.70;100306.06;4478807;31;34546;-79
2022/06/03 04:48:38;;;;;;;5.72;2.40;;;;;;;19.13;57.54;100305.53;4479836;31;34697;-80
2022/06/03 04:51:56;;;;;;;4.87;2.05;;;;;;;19.35;57.29;100301.37;4407029;32;34075;-79
2022/06/03 04:55:24;;;;;;;4.22;2.25;;;;;;;19.28;58.06;100306.75;4419678;32;34345;-79
2022/06/03 04:58:48;;;;;;;5.18;2.33;;;;;;;19.09;59.04;100308.19;4469396;31;34935;-79
2022/06/03 05:01:52;;;;;;;4.07;2.20;;;;;;;19.34;58.37;100299.78;4467657;32;34752;-79
2022/06/03 05:05:17;;;;;;;3.80;2.00;;;;;;;19.45;57.84;100297.28;4480211;31;34021;-79
2022/06/03 05:08:35;;;;;;;4.05;2.10;;;;;;;19.76;56.53;100302.13;4479947;31;34622;-79
2022/06/03 05:11:42;;;;;;;4.95;2.67;;;;;;;20.04;55.37;100307.63;4481115;31;34970;-79
2022/06/03 05:14:53;;;;;;;4.75;2.50;;;;;;;19.60;56.33;100313.19;4467938;32;34655;-79
2022/06/03 05:17:53;;;;;;;4.55;2.25;;;;;;;19.61;57.02;100314.81;4475847;31;34132;-80
2022/06/03 05:20:48;;;;;;;4.93;2.47;;;;;;;19.96;56.98;100316.97;4476318;31;35666;-79
2022/06/03 05:23:45;;;;;;;4.72;2.50;;;;;;;19.71;57.24;100324.63;4477118;31;34704;-80
2022/06/03 05:26:50;;;;;;;7.35;2.45;;;;;;;20.31;56.28;100325.37;4466805;31;34634;-79
2022/06/03 05:29:47;;;;;;;5.07;2.40;;;;;;;19.56;59.51;100326.19;4468126;32;34677;-79
2022/06/03 05:32:37;;;;;;;5.57;2.60;;;;;;;20.33;57.63;100327.81;4464763;32;35521;-79
2022/06/03 05:35:36;;;;;;;4.12;2.60;;;;;;;20.27;57.31;100332.84;4479343;31;35235;-78
2022/06/03 05:38:45;;;;;;;5.37;2.80;;;;;;;20.35;57.37;100329.09;4481213;32;34253;-77
2022/06/03 05:45:33;;;;;;;6.10;2.75;;;;;;;20.51;52.39;100337.41;4469071;32;34689;-79
2022/06/03 05:49:01;;;;;;;5.03;2.60;;;;;;;21.33;51.22;100327.31;4482933;31;36233;-78
2022/06/03 05:52:04;;;;;;;5.87;2.30;;;;;;;21.14;49.29;100328.09;4476769;31;34616;-79
2022/06/03 05:55:09;;;;;;;6.20;3.12;;;;;;;21.33;48.75;100335.66;4464652;32;33721;-80
2022/06/03 05:58:28;;;;;;;6.90;3.03;;;;;;;21.78;48.25;100345.34;4464722;31;35997;-79
2022/06/03 06:01:47;;;;;;;3.83;2.60;;;;;;;21.76;48.05;100333.75;4472720;31;35036;-80
2022/06/03 06:05:11;;;;;;;5.18;2.47;;;;;;;21.94;46.20;100328.47;4476972;31;34914;-77
2022/06/03 06:08:20;;;;;;;4.22;2.35;;;;;;;22.01;45.87;100331.41;4475098;32;35201;-78
2022/06/03 06:11:32;;;;;;;5.00;2.70;;;;;;;21.91;44.66;100321.66;4454088;31;34214;-78
2022/06/03 06:15:02;;;;;;;3.75;2.42;;;;;;;22.16;44.52;100319.31;4474500;31;35055;-79
2022/06/03 06:18:14;;;;;;;4.18;2.85;;;;;;;22.21;46.26;100323.81;4467998;32;34139;-78
2022/06/03 06:21:17;;;;;;;4.05;2.45;;;;;;;21.85;43.72;100312.00;4456001;32;34077;-79
2022/06/03 06:24:29;;;;;;;5.68;2.40;;;;;;;22.55;42.72;100319.19;4457683;32;34630;-79
2022/06/03 06:27:27;;;;;;;5.80;2.50;;;;;;;22.69;42.98;100318.59;4456696;32;34947;-80
2022/06/03 06:30:27;;;;;;;6.22;2.53;;;;;;;22.67;42.08;100318.16;4451161;32;35820;-79
2022/06/03 06:33:34;;;;;;;5.87;2.58;;;;;;;22.33;43.22;100320.00;4455554;32;34228;-79
2022/06/03 06:36:59;;;;;;;4.72;2.58;;;;;;;22.76;42.60;100315.09;4433854;32;35503;-80
2022/06/03 06:40:19;;;;;;;7.15;2.70;;;;;;;23.22;43.32;100323.31;4452713;32;34921;-79
2022/06/03 06:43:23;;;;;;;6.35;2.70;;;;;;;23.09;43.05;100322.75;4438615;32;34772;-76
2022/06/03 06:46:19;;;;;;;3.45;2.40;;;;;;;23.20;42.80;100322.91;4446900;32;35121;-78
2022/06/03 06:49:24;;;;;;;6.87;2.75;;;;;;;23.33;42.42;100319.47;4456692;32;34724;-78
2022/06/03 06:52:27;;;;;;;5.00;2.50;;;;;;;23.56;42.93;100326.91;4454153;32;35736;-77
2022/06/03 06:55:19;;;;;;;5.87;2.78;;;;;;;23.70;43.02;100323.47;4446270;32;35105;-77
2022/06/03 06:58:20;;;;;;;4.47;2.80;;;;;;;22.97;43.42;100318.22;4458353;32;33904;-78
2022/06/03 07:01:07;;;;;;;5.68;2.95;;;;;;;23.37;43.21;100316.72;4447639;32;34339;-78
2022/06/03 07:03:58;;;;;;;4.93;2.87;;;;;;;23.43;43.12;100314.41;4461393;32;34986;-78
2022/06/03 07:06:55;;;;;;;4.90;2.72;;;;;;;23.47;44.06;100320.81;4442816;32;34806;-78
2022/06/03 07:09:59;;;;;;;5.45;3.10;;;;;;;23.57;43.29;100320.94;4459818;32;34841;-77
2022/06/03 07:13:02;;;;;;;4.43;3.15;;;;;;;23.66;43.48;100312.25;4457913;32;34178;-78
2022/06/03 07:16:08;;;;;;;5.25;2.97;;;;;;;23.86;43.01;100312.88;4440041;32;35015;-78
2022/06/03 07:22:45;;;;;;;6.93;2.95;;;;;;;24.01;42.50;100322.22;4466403;32;33682;-78
2022/06/03 07:25:35;;;;;;;5.50;3.37;;;;;;;24.25;41.93;100309.62;4464799;32;35623;-78
2022/06/03 07:28:36;;;;;;;6.85;3.00;;;;;;;24.25;42.50;100295.63;4467465;32;36008;-79
2022/06/03 07:31:55;;;;;;;7.80;2.90;;;;;;;24.17;43.22;100297.56;4465621;32;34267;-79
2022/06/03 07:34:54;;;;;;;4.53;2.87;;;;;;;24.28;42.08;100294.03;4466698;32;34246;-78
2022/06/03 07:37:55;;;;;;;6.75;3.15;;;;;;;24.46;41.31;100297.81;4466447;32;34796;-78
2022/06/03 07:40:51;;;;;;;4.78;3.00;;;;;;;24.96;41.25;100286.91;4466262;32;36101;-79
2022/06/03 07:44:12;;;;;;;7.03;2.92;;;;;;;25.09;41.05;100281.75;4467318;32;35483;-78
2022/06/03 07:47:03;;;;;;;5.75;3.03;;;;;;;25.08;40.15;100289.34;4455452;32;35089;-77
2022/06/03 07:49:58;;;;;;;4.10;2.75;;;;;;;24.99;39.08;100300.12;4466509;32;34585;-78
2022/06/03 07:52:52;;;;;;;4.07;3.20;;;;;;;25.10;38.95;100305.78;4465912;32;34936;-78
2022/06/03 07:55:39;;;;;;;4.68;2.85;;;;;;;25.34;38.71;100293.09;4465731;32;34132;-79
2022/06/03 07:58:30;;;;;;;6.28;2.80;;;;;;;25.73;37.88;100300.81;4467458;32;33903;-79
2022/06/03 08:01:27;;;;;;;5.03;3.00;;;;;;;25.71;37.05;100294.78;4466321;32;34593;-78
2022/06/03 08:04:27;;;;;;;5.78;3.10;;;;;;;25.66;38.23;100292.38;4455676;32;35071;-78
2022/06/03 08:11:00;;;;;;;4.95;3.55;;;;;;;26.07;37.21;100292.03;4467432;32;35237;-77
2022/06/03 08:13:52;;;;;;;9.27;3.30;;;;;;;26.14;36.67;100286.44;4456903;32;34646;-77
2022/06/03 08:16:42;;;;;;;5.30;2.95;;;;;;;26.22;36.16;100282.41;4466369;32;34927;-77
2022/06/03 08:19:33;;;;;;;5.00;3.05;;;;;;;26.39;36.79;100286.41;4465366;32;35419;-78
2022/06/03 08:22:22;;;;;;;5.43;3.42;;;;;;;26.50;36.73;100289.19;4452711;32;35136;-79
2022/06/03 08:25:09;;;;;;;4.37;3.08;;;;;;;26.67;35.97;100286.41;4450943;32;35558;-78
2022/06/03 08:27:57;;;;;;;3.80;2.90;;;;;;;27.02;35.36;100289.50;4467933;32;34970;-78
2022/06/03 08:30:46;;;;;;;5.62;2.83;;;;;;;27.23;34.97;100286.62;4452286;32;33571;-78
2022/06/03 08:33:42;;;;;;;4.12;2.90;;;;;;;26.85;34.07;100280.72;4451111;32;34150;-77
2022/06/03 08:36:31;;;;;;;9.02;3.10;;;;;;;27.40;33.80;100275.69;4448297;32;34656;-79
2022/06/03 08:39:22;;;;;;;6.28;3.00;;;;;;;27.29;34.73;100275.75;4444724;32;36108;-78
2022/06/03 08:42:13;;;;;;;;;;;;;;;27.19;34.77;100273.81;4444829;32;35120;-79
2022/06/03 08:45:09;;;;;;;2.80;2.17;;;;;;;27.30;33.08;100264.09;4424959;32;34130;-78
2022/06/03 08:48:00;;;;;;;4.10;2.50;;;;;;;27.38;33.04;100276.12;4458837;32;34732;-78
2022/06/03 08:50:48;;;;;;;7.07;3.03;;;;;;;27.10;32.81;100265.78;4441898;32;35998;-78
2022/06/03 08:53:52;;;;;;;5.20;2.90;;;;;;;27.14;32.85;100272.16;4447826;32;35519;-79
2022/06/03 08:56:45;;;;;;;4.65;3.00;;;;;;;27.47;32.31;100275.66;4431949;32;34990;-77
2022/06/03 08:59:40;;;;;;;5.50;2.83;;;;;;;27.13;33.05;100279.81;4438147;32;34509;-77
2022/06/03 09:02:43;;;;;;;5.12;3.10;;;;;;;26.63;33.81;100279.16;4448080;32;36032;-77
2022/06/03 09:05:33;;;;;;;5.72;3.25;;;;;;;27.27;33.81;100276.16;4446877;32;35364;-77
2022/06/03 09:08:31;;;;;;;4.62;2.92;;;;;;;27.68;33.53;100274.72;4439356;32;34694;-77
2022/06/03 09:11:42;;;;;;;3.33;2.67;;;;;;;27.98;33.29;100265.69;4448235;32;34596;-77
2022/06/03 09:14:29;;;;;;;3.80;2.97;;;;;;;28.10;33.55;100276.44;4455142;32;36018;-77
2022/06/03 09:17:33;;;;;;;4.68;2.80;;;;;;;28.39;32.03;100268.53;4442881;32;34636;-78
2022/06/03 09:20:36;;;;;;;5.37;3.00;;;;;;;27.85;33.59;100265.38;4461433;32;34125;-77
2022/06/03 09:23:25;;;;;;;3.28;2.97;;;;;;;28.37;32.44;100264.50;4483417;32;34688;-77
2022/06/03 09:26:25;;;;;;;3.80;2.97;;;;;;;28.23;32.31;100266.28;4460407;32;35969;-78
2022/06/03 09:29:14;;;;;;;4.55;3.08;;;;;;;28.45;31.88;100260.44;4469521;32;35489;-76
2022/06/03 09:32:04;;;;;;;8.13;3.42;;;;;;;28.57;34.24;100265.53;4471863;32;35141;-78
2022/06/03 09:34:57;;;;;;;5.82;3.50;;;;;;;28.97;32.04;100268.72;4458802;32;34688;-77
2022/06/03 09:37:53;;;;;;;5.30;3.12;;;;;;;28.91;32.08;100261.94;4470382;32;35801;-77
2022/06/03 09:40:44;;;;;;;4.93;3.00;;;;;;;28.90;30.88;100268.81;4471846;32;34617;-78
2022/06/03 09:43:36;;;;;;;5.35;3.15;;;;;;;29.34;31.25;100286.81;4470207;32;33516;-77
2022/06/03 09:46:28;;;;;;;3.60;2.83;;;;;;;29.16;30.79;100286.25;4481276;32;34381;-78
2022/06/03 09:49:17;;;;;;;3.90;2.87;;;;;;;29.98;29.86;100277.44;4459685;32;35031;-78
2022/06/03 09:52:08;;;;;;;6.95;3.10;;;;;;;29.85;32.08;100281.28;4482621;32;35543;-77
2022/06/03 09:55:00;;;;;;;7.15;3.00;;;;;;;29.87;30.40;100278.81;4469900;32;34985;-78
2022/06/03 09:57:47;;;;;;;;;;;;;;;29.91;30.61;100283.19;4460893;32;34618;-78
2022/06/03 10:00:48;;;;;;;6.68;3.40;;;;;;;29.68;30.36;100292.41;4459037;32;35170;-77
2022/06/03 10:03:35;;;;;;;3.50;2.90;;;;;;;29.54;31.85;100290.59;4468398;32;35646;-77
2022/06/03 10:12:50;;;;;;;8.85;3.10;;;;;;;30.24;31.64;100275.81;4486092;32;35176;-77
2022/06/03 10:15:45;;;;;;;3.40;2.87;;;;;;;30.40;30.11;100275.13;4472248;32;35482;-77
2022/06/03 10:18:43;;;;;;;4.85;3.12;;;;;;;30.42;29.52;100275.47;4472243;32;34067;-77
2022/06/03 10:21:32;;;;;;;7.97;3.25;;;;;;;30.65;29.70;100277.50;4471993;32;35599;-77
2022/06/03 10:24:23;;;;;;;5.80;2.90;;;;;;;30.80;29.17;100278.03;4471562;32;36049;-79
2022/06/03 10:27:18;;;;;;;5.28;3.80;;;;;;;31.07;29.31;100280.72;4461649;32;34202;-77
2022/06/03 10:30:06;;;;;;;4.28;3.17;;;;;;;31.12;29.68;100266.06;4483453;32;34012;-78
2022/06/03 10:32:54;;;;;;;6.80;3.12;;;;;;;30.96;28.68;100268.00;4483024;32;35611;-78
2022/06/03 10:35:42;;;;;;;5.72;3.20;;;;;;;30.75;31.09;100264.37;4472886;32;34946;-77
2022/06/03 10:38:36;;;;;;;6.35;3.05;;;;;;;31.00;29.83;100257.44;4471449;32;35448;-78
2022/06/03 10:41:38;;;;;;;4.93;3.28;;;;;;;31.44;29.43;100252.44;4484510;32;34727;-77
2022/06/03 10:44:33;;;;;;;4.65;3.22;;;;;;;30.89;29.54;100252.78;4472502;32;34627;-76
2022/06/03 10:47:33;;;;;;;5.35;3.03;;;;;;;31.22;29.50;100252.88;4483038;32;35023;-77
2022/06/03 10:50:28;;;;;;;4.65;2.85;;;;;;;31.68;28.84;100248.25;4481899;32;34606;-76
2022/06/03 11:02:54;;;;;;;6.43;2.67;;;;;;;31.36;26.91;100238.47;4473988;32;34882;-77
2022/06/03 11:05:41;;;;;;;4.87;2.80;;;;;;;31.99;27.46;100245.06;4471090;32;34379;-77
2022/06/03 11:08:45;;;;;;;4.20;2.70;;;;;;;32.28;27.94;100238.69;4471222;32;35600;-77
2022/06/03 11:11:39;;;;;;;5.37;2.85;;;;;;;32.12;28.22;100233.81;4472129;32;34971;-79
2022/06/03 11:14:36;;;;;;;3.75;2.50;;;;;;;31.24;27.30;100233.44;4461602;32;34253;-77
2022/06/03 11:17:34;;;;;;;3.45;2.97;;;;;;;30.85;27.16;100225.78;4470333;32;34119;-77
2022/06/03 11:20:37;;;;;;;4.75;2.87;;;;;;;31.13;27.19;100215.91;4470539;32;34207;-77
2022/06/03 11:23:25;;;;;;;5.93;2.80;;;;;;;31.20;27.95;100212.94;4471325;32;34915;-77
2022/06/03 11:26:26;;;;;;;5.32;2.90;;;;;;;31.45;27.58;100203.88;4482843;32;34970;-78
2022/06/03 11:29:26;;;;;;;3.60;2.40;;;;;;;32.41;29.21;100214.00;4471162;32;34030;-78
2022/06/03 11:32:17;;;;;;;3.62;2.70;;;;;;;32.56;26.33;100203.09;4470517;32;35637;-77
2022/06/03 11:35:17;;;;;;;4.72;2.72;;;;;;;31.69;27.03;100198.84;4470263;32;36011;-78
2022/06/03 11:38:11;;;;;;;2.78;2.40;;;;;;;32.43;27.23;100200.19;4482342;32;34655;-78
2022/06/03 11:41:03;;;;;;;3.80;2.65;;;;;;;32.73;26.42;100201.78;4460703;32;34200;-77
2022/06/03 11:43:58;;;;;;;4.57;2.90;;;;;;;32.44;26.72;100193.25;4483274;32;34861;-75
2022/06/03 11:46:55;;;;;;;3.10;2.80;;;;;;;32.30;26.87;100185.16;4483058;32;35559;-75
2022/06/03 11:49:51;;;;;;;4.60;2.42;;;;;;;32.77;25.52;100176.16;4471665;32;34675;-75
2022/06/03 11:52:40;;;;;;;4.60;2.80;;;;;;;33.43;24.49;100170.88;4470837;32;34686;-77
2022/06/03 11:55:29;;;;;;;5.75;2.80;;;;;;;33.37;25.31;100174.28;4471333;32;34420;-75
2022/06/03 11:58:44;;;;;;;6.57;2.58;;;;;;;33.51;25.76;100172.25;4471940;32;35790;-75
2022/06/03 12:01:46;;;;;;;3.17;2.20;;;;;;;33.65;26.28;100166.13;4481996;32;35755;-75
2022/06/03 12:04:47;;;;;;;3.53;2.10;;;;;;;33.97;24.07;100159.31;4470119;32;34010;-75
2022/06/03 12:07:46;;;;;;;3.50;2.50;;;;;;;33.57;24.75;100156.25;4482221;32;34821;-74
2022/06/03 12:10:59;;;;;;;5.25;2.92;;;;;;;33.59;25.38;100151.69;4470225;32;34529;-75
2022/06/03 12:14:27;;;;;;;4.93;2.70;;;;;;;33.30;25.02;100151.81;4474888;32;229654;-75
2022/06/03 12:17:17;;;;;;;5.60;2.85;;;;;;;32.18;26.53;100149.84;4470470;32;34109;-75
2022/06/03 12:20:55;;;;;;;4.93;2.45;;;;;;;32.40;25.12;100141.53;4482063;32;33630;-75
2022/06/03 12:23:52;;;;;;;3.28;2.70;;;;;;;31.90;26.73;100132.31;4482178;32;34853;-76
2022/06/03 12:26:46;;;;;;;3.65;2.62;;;;;;;32.66;26.46;100125.41;4469277;32;34633;-74
2022/06/03 12:29:39;;;;;;;5.30;2.58;;;;;;;32.79;27.13;100131.06;4471396;32;34149;-73
2022/06/03 12:32:34;;;;;;;2.90;2.53;;;;;;;32.92;26.09;100114.87;4470331;32;35559;-74
2022/06/03 12:35:47;;;;;;;4.28;2.87;;;;;;;33.17;25.59;100107.63;4469615;32;34653;-74
2022/06/03 12:38:43;;;;;;;2.97;2.17;;;;;;;33.65;24.60;100102.81;4483238;32;35490;-75
2022/06/03 12:41:45;;;;;;;4.05;2.28;;;;;;;33.51;25.28;100109.75;4459897;32;34199;-73
2022/06/03 12:44:47;;;;;;;4.57;2.65;;;;;;;32.98;26.14;100113.03;4482983;32;35239;-74
2022/06/03 12:47:43;;;;;;;3.85;2.30;;;;;;;32.91;26.91;100107.63;4482095;32;35114;-73
2022/06/03 12:50:35;;;;;;;3.20;2.17;;;;;;;33.35;26.72;100102.16;4470951;32;35053;-73
2022/06/03 12:53:35;;;;;;;4.27;2.70;;;;;;;33.26;24.24;100105.69;4471373;32;33790;-73
2022/06/03 12:56:45;;;;;;;4.87;2.20;;;;;;;33.50;23.95;100091.91;4471329;32;34608;-73
2022/06/03 12:59:57;;;;;;;4.87;2.20;;;;;;;33.78;24.11;100090.16;4460239;32;35009;-73
2022/06/03 13:02:54;;;;;;;4.05;2.00;;;;;;;33.63;25.25;100099.62;4471317;32;34792;-73
2022/06/03 13:05:43;;;;;;;3.97;1.80;;;;;;;32.14;24.47;100096.09;4471777;32;35298;-74
2022/06/03 13:08:33;;;;;;;2.72;1.80;;;;;;;33.32;24.52;100091.72;4471466;32;35434;-74
2022/06/03 13:11:42;;;;;;;3.10;2.53;;;;;;;31.91;24.76;100090.66;4481223;32;34946;-74
2022/06/03 13:14:32;;;;;;;2.22;1.87;;;;;;;31.37;26.41;100086.38;4470303;32;34576;-74
2022/06/03 13:18:06;;;;;;;3.55;2.20;;;;;;;32.52;25.09;100080.44;4481737;32;34203;-74
2022/06/03 13:21:01;;;;;;;4.20;2.10;;;;;;;32.96;24.42;100080.69;4482269;32;35619;-74
2022/06/03 13:23:50;;;;;;;3.90;1.92;;;;;;;33.89;25.77;100077.59;4484039;32;36034;-74
2022/06/03 13:26:38;;;;;;;6.30;2.10;;;;;;;33.97;25.15;100084.63;4483442;32;35063;-74
2022/06/03 13:29:55;;;;;;;4.35;1.90;;;;;;;33.95;23.36;100073.69;4483130;32;35139;-75
2022/06/03 13:32:58;;;;;;;2.42;1.92;;;;;;;34.41;23.58;100076.09;4482135;32;34719;-74
2022/06/03 13:36:11;;;;;;;2.90;1.90;;;;;;;34.21;23.25;100076.44;4482740;32;34985;-74
2022/06/03 13:38:59;;;;;;;3.28;1.87;;;;;;;34.19;24.17;100073.28;4460222;32;34644;-74
2022/06/03 13:45:00;;;;;;;3.53;1.85;;;;;;;34.46;22.30;100067.75;4473064;32;35512;-74
2022/06/03 13:47:52;;;;;;;4.25;2.00;;;;;;;33.21;23.09;100060.81;4484001;32;34986;-75
2022/06/03 13:50:43;;;;;;;4.28;1.77;;;;;;;34.23;23.86;100060.50;4473131;32;34581;-74
2022/06/03 13:53:31;;;;;;;4.03;2.15;;;;;;;34.59;22.84;100055.53;4473142;32;33000;-74
2022/06/03 13:56:25;;;;;;;3.65;2.05;;;;;;;34.06;22.95;100055.50;4472815;32;34276;-74
2022/06/03 13:59:16;;;;;;;2.05;1.70;;;;;;;34.62;22.68;100049.72;4472321;32;35982;-74
2022/06/03 14:02:11;;;;;;;5.05;2.00;;;;;;;34.95;22.07;100042.72;4485224;32;35185;-74
2022/06/03 14:05:06;;;;;;;2.90;1.95;;;;;;;34.59;24.37;100049.84;4472931;32;34405;-78
2022/06/03 14:07:56;;;;;;;2.08;1.80;;;;;;;34.49;22.43;100044.06;4471688;32;34715;-74
2022/06/03 14:10:50;;;;;;;2.55;2.03;;;;;;;34.66;22.05;100033.28;4461965;32;34954;-73
2022/06/03 14:17:28;;;;;;;3.30;2.03;;;;;;;34.26;22.84;100021.81;4473018;32;32983;-74
2022/06/03 14:20:30;;;;;;;3.35;2.15;;;;;;;34.70;23.31;100027.47;4482314;32;34630;-74
2022/06/03 14:23:30;;;;;;;6.97;2.00;;;;;;;34.87;23.37;100031.62;4483045;32;34946;-74
2022/06/03 14:26:25;;;;;;;3.00;1.80;;;;;;;35.04;22.70;100035.00;4472825;32;34633;-74
2022/06/03 14:29:30;;;;;;;3.67;2.00;;;;;;;35.76;21.35;100029.91;4473268;32;34994;-73
2022/06/03 14:32:32;;;;;;;3.15;2.00;;;;;;;34.96;22.33;100027.22;4484117;32;34702;-74
2022/06/03 14:35:48;;;;;;;5.95;2.12;;;;;;;35.16;21.76;100018.28;4471690;32;34941;-74
2022/06/03 14:38:42;;;;;;;3.80;1.90;;;;;;;34.99;22.27;100012.06;4471945;32;34639;-74
2022/06/03 14:41:34;;;;;;;2.67;1.87;;;;;;;35.23;22.46;100009.44;4493412;31;33779;-74
2022/06/03 14:44:25;;;;;;;2.87;2.03;;;;;;;35.05;22.90;100007.31;4472415;32;34580;-74
2022/06/03 14:47:34;;;;;;;3.75;2.00;;;;;;;35.47;22.07;100015.34;4462842;32;34838;-74
2022/06/03 14:50:28;;;;;;;2.35;1.77;;;;;;;35.25;22.00;100015.47;4481018;31;35521;-74